Spearfish, SD

6:38 AM MDT on August 17, 2017 (GMT -0600)
Black Hills-Ice

Weather History for KSPF - April, 2013

Change the Weather History Date:

Sunday, April 14, 2013

  Actual Average (KEFC) Record (KEFC)
Temperature  
Mean Temperature 26 °F -  
Max Temperature 32 °F 62 °F 81 °F (1982)
Min Temperature 19 °F 29 °F 6 °F (1983)
Degree Days  
Heating Degree Days 40    
Moisture  
Dew Point 25 °F    
Average Humidity 87    
Maximum Humidity 100    
Minimum Humidity 69    
Precipitation  
Precipitation 3.69 in - - ()
Sea Level Pressure  
Sea Level Pressure 29.52 in    
Wind  
Wind Speed 14 mph (WNW)    
Max Wind Speed 29 mph    
Max Gust Speed 38 mph    
Visibility 5 miles    
Events Fog , Rain , Snow    
Averages and records for this station are not official NWS values.
T = Trace of Precipitation, MM = Missing Value Source: NWS Daily Summary

Daily Weather History Graph

Daily Weather History Graph

Search for Another Location

Airport or City:

Trip Planner

Search our weather history database for the weather conditions in past years. The results will help you decide how hot, cold, wet, or windy it might be!

Date:

Astronomy

Apr. 14, 2013 Rise Set
Actual Time 7:12 AM CDT 8:38 PM CDT
Civil Twilight 6:42 AM CDT 9:09 PM CDT
Nautical Twilight 6:05 AM CDT 9:46 PM CDT
Astronomical Twilight 5:26 AM CDT 10:25 PM CDT
Moon 9:44 AM CDT (4/14) 12:10 AM CDT (4/14)
Length of Visible Light 14h 27m
Length of Day
13h 26m
Waxing Crescent, 17% of the Moon is Illuminated
Apr 14
Waxing Crescent
Apr 18
First Quarter
Apr 25
Full
May 2
Last Quarter
May 9
New

Hourly Weather History & Observations

Time (CDT) Temp. Windchill Dew Point Humidity Pressure Visibility Wind Dir Wind Speed Gust Speed Precip Events Conditions
12:15 AM 32.0 °F 27.5 °F 32.0 °F 100% 29.38 in 0.2 mi NNE 4.6 mph - N/A Fog Light Freezing Fog
12:35 AM 32.0 °F 28.7 °F 32.0 °F 100% 29.40 in 0.2 mi NNW 3.5 mph - N/A Fog Light Freezing Fog
12:55 AM 32.0 °F 26.4 °F 32.0 °F 100% 29.40 in 0.2 mi WNW 5.8 mph - N/A Fog Light Freezing Fog
1:15 AM 32.0 °F 25.6 °F 32.0 °F 100% 29.38 in 0.2 mi WSW 6.9 mph - N/A Fog Light Freezing Fog
1:35 AM 32.0 °F 27.5 °F 32.0 °F 100% 29.39 in 4.0 mi West 4.6 mph - N/A   Overcast
1:55 AM 32.0 °F 27.5 °F 32.0 °F 100% 29.40 in 5.0 mi NNW 4.6 mph - N/A   Overcast
2:15 AM 32.0 °F 26.4 °F 32.0 °F 100% 29.40 in 7.0 mi North 5.8 mph - N/A   Overcast
2:35 AM 32.0 °F - 32.0 °F 100% 29.42 in 0.5 mi Calm Calm - N/A Fog Light Freezing Fog
2:55 AM 32.0 °F 27.5 °F 32.0 °F 100% 29.41 in 0.8 mi NW 4.6 mph - N/A   Overcast
3:15 AM 32.0 °F 27.5 °F 32.0 °F 100% 29.41 in 1.0 mi WNW 4.6 mph - N/A   Overcast
3:35 AM 32.0 °F - 32.0 °F 100% 29.41 in 10.0 mi Calm Calm - N/A   Overcast
3:55 AM 32.0 °F 26.4 °F 32.0 °F 100% 29.41 in 9.0 mi NW 5.8 mph - N/A   Overcast
4:15 AM 32.0 °F 24.8 °F 32.0 °F 100% 29.40 in 10.0 mi NW 8.1 mph - N/A   Overcast
4:35 AM 32.0 °F 22.5 °F 32.0 °F 100% 29.39 in 6.0 mi WNW 12.7 mph 20.7 mph 0.01 in   Overcast
4:55 AM 32.0 °F 19.8 °F 32.0 °F 100% 29.39 in 5.0 mi West 20.7 mph 27.6 mph 0.02 in Snow Light Snow
5:15 AM 32.0 °F 20.8 °F 28.4 °F 87% 29.40 in 10.0 mi West 17.3 mph 24.2 mph 0.01 in Snow Light Snow
5:35 AM 32.0 °F 21.2 °F 28.4 °F 87% 29.41 in 10.0 mi WNW 16.1 mph 24.2 mph 0.01 in   Overcast
5:55 AM 32.0 °F 20.8 °F 28.4 °F 87% 29.41 in 10.0 mi WNW 17.3 mph 23.0 mph 0.01 in   Mostly Cloudy
6:15 AM 32.0 °F 22.5 °F 28.4 °F 87% 29.41 in 10.0 mi WNW 12.7 mph 18.4 mph N/A Snow Light Snow
6:55 AM 32.0 °F 22.1 °F 30.2 °F 93% 29.41 in 2.5 mi WNW 13.8 mph - 0.36 in Snow Light Snow
7:15 AM 32.0 °F 21.6 °F 28.4 °F 87% 29.42 in 3.0 mi WNW 15.0 mph 28.8 mph 0.03 in Snow Light Snow
7:35 AM 32.0 °F 19.8 °F 28.4 °F 87% 29.41 in 2.5 mi West 20.7 mph 32.2 mph 0.10 in Snow Light Snow
7:55 AM 32.0 °F 19.5 °F 26.6 °F 80% 29.42 in 2.5 mi WNW 21.9 mph 36.8 mph 0.12 in   Mostly Cloudy
8:15 AM 32.0 °F 20.1 °F 26.6 °F 80% 29.43 in 2.5 mi WNW 19.6 mph 31.1 mph 0.01 in   Overcast
8:35 AM 32.0 °F 19.8 °F 28.4 °F 87% 29.43 in 1.0 mi West 20.7 mph 26.5 mph 0.09 in Snow Light Snow
8:55 AM 32.0 °F 18.9 °F 28.4 °F 87% 29.43 in 1.0 mi West 24.2 mph 29.9 mph 0.19 in Snow Light Snow
9:15 AM 32.0 °F 20.5 °F 28.4 °F 87% 29.43 in 0.5 mi WNW 18.4 mph 32.2 mph 0.25 in Snow Snow
9:35 AM 30.2 °F 16.8 °F 28.4 °F 93% 29.44 in 0.2 mi NW 23.0 mph 38.0 mph 1.00 in Snow Heavy Snow
9:55 AM 30.2 °F 17.4 °F 28.4 °F 93% 29.44 in 0.5 mi NW 20.7 mph 34.5 mph 1.54 in Snow Snow
10:15 AM 30.2 °F 16.2 °F 28.4 °F 93% 29.45 in 2.5 mi NW 25.3 mph 34.5 mph 0.01 in   Clear
10:35 AM 32.0 °F 20.1 °F 28.4 °F 87% 29.45 in 7.0 mi NW 19.6 mph 34.5 mph 0.02 in Rain Light Rain
10:55 AM 32.0 °F 18.4 °F 28.4 °F 87% 29.46 in 10.0 mi NW 26.5 mph 32.2 mph 0.02 in   Mostly Cloudy
11:15 AM 32.0 °F 18.4 °F 26.6 °F 80% 29.46 in 9.0 mi WNW 26.5 mph 31.1 mph N/A Rain Light Rain
11:35 AM 32.0 °F 19.2 °F 24.8 °F 75% 29.46 in 10.0 mi WNW 23.0 mph 34.5 mph N/A Rain Light Rain
11:55 AM 32.0 °F 18.9 °F 24.8 °F 75% 29.46 in 10.0 mi NW 24.2 mph 36.8 mph N/A Rain Light Rain
12:15 PM 32.0 °F 19.2 °F 24.8 °F 75% 29.47 in 10.0 mi NW 23.0 mph 31.1 mph N/A   Mostly Cloudy
12:35 PM 32.0 °F 18.6 °F 24.8 °F 75% 29.48 in 7.0 mi NW 25.3 mph 32.2 mph N/A Rain Light Rain
12:55 PM 32.0 °F 19.2 °F 24.8 °F 75% 29.48 in 10.0 mi WNW 23.0 mph 33.4 mph N/A Rain Light Rain
1:15 PM 32.0 °F 19.5 °F 23.0 °F 69% 29.48 in 10.0 mi WNW 21.9 mph 34.5 mph N/A Rain Light Rain
1:35 PM 32.0 °F 20.1 °F 24.8 °F 75% 29.48 in 10.0 mi NW 19.6 mph 31.1 mph N/A   Overcast
1:55 PM 28.4 °F 13.5 °F 23.0 °F 80% 29.49 in 10.0 mi NW 26.5 mph 34.5 mph N/A Rain Light Freezing Rain
2:15 PM 28.4 °F 13.5 °F 21.2 °F 74% 29.50 in 10.0 mi NW 26.5 mph 38.0 mph N/A   Overcast
2:55 PM 28.4 °F 13.3 °F 21.2 °F 74% 29.52 in 10.0 mi NW 27.6 mph 34.5 mph N/A Rain Light Freezing Rain
3:15 PM 26.6 °F 10.8 °F 21.2 °F 80% 29.52 in 10.0 mi NW 27.6 mph 35.7 mph N/A Rain Light Freezing Rain
3:35 PM 26.6 °F 10.8 °F 21.2 °F 80% 29.53 in 10.0 mi NW 27.6 mph 34.5 mph N/A   Overcast
3:55 PM 26.6 °F 11.7 °F 19.4 °F 74% 29.54 in 10.0 mi NW 24.2 mph 33.4 mph N/A   Overcast
4:15 PM 26.6 °F 11.7 °F 19.4 °F 74% 29.54 in 4.0 mi NW 24.2 mph 33.4 mph N/A   Mostly Cloudy
4:35 PM 26.6 °F 12.0 °F 19.4 °F 74% 29.55 in 1.0 mi NW 23.0 mph 33.4 mph 0.03 in Snow Light Snow
4:55 PM 24.8 °F 9.0 °F 21.2 °F 86% 29.56 in 2.0 mi NW 25.3 mph 33.4 mph 0.08 in   Scattered Clouds
5:15 PM 24.8 °F 8.7 °F 21.2 °F 86% 29.56 in 0.5 mi NW 26.5 mph 34.5 mph 0.07 in Snow Snow
5:35 PM 24.8 °F 8.4 °F 21.2 °F 86% 29.57 in 1.2 mi WNW 27.6 mph 34.5 mph 0.15 in Snow Light Snow
5:55 PM 24.8 °F 8.1 °F 19.4 °F 80% 29.59 in 2.0 mi WNW 28.8 mph 38.0 mph 0.19 in   Scattered Clouds
6:15 PM 24.8 °F 8.4 °F 17.6 °F 74% 29.60 in 1.2 mi WNW 27.6 mph 38.0 mph 0.04 in Snow Light Snow
6:35 PM 24.8 °F 9.6 °F 17.6 °F 74% 29.61 in 2.0 mi WNW 23.0 mph 33.4 mph 0.07 in Snow Light Snow
6:55 PM 23.0 °F 7.6 °F 19.4 °F 86% 29.63 in 0.8 mi WNW 21.9 mph 34.5 mph 0.13 in   Mostly Cloudy
7:15 PM 23.0 °F 5.7 °F 19.4 °F 86% 29.64 in 1.8 mi WNW 28.8 mph 35.7 mph 0.03 in   Scattered Clouds
7:35 PM 23.0 °F 6.3 °F 17.6 °F 80% 29.65 in 2.5 mi WNW 26.5 mph 32.2 mph 0.04 in Rain Light Freezing Rain
7:55 PM 23.0 °F 8.0 °F 19.4 °F 86% 29.65 in 1.5 mi WNW 20.7 mph 31.1 mph 0.08 in Snow Light Snow
8:15 PM 21.2 °F 4.5 °F 19.4 °F 93% 29.67 in 0.8 mi WNW 24.2 mph 35.7 mph 0.05 in Snow Light Snow
8:35 PM 21.2 °F 3.5 °F 17.6 °F 86% 29.69 in 2.5 mi WNW 27.6 mph 38.0 mph 0.07 in Snow Light Snow
8:55 PM 21.2 °F 6.0 °F 17.6 °F 86% 29.70 in 2.0 mi WNW 19.6 mph 36.8 mph 0.10 in Snow Light Snow
9:15 PM 21.2 °F 6.0 °F 17.6 °F 86% 29.71 in 1.8 mi WNW 19.6 mph 27.6 mph 0.08 in Snow Light Snow
9:35 PM 21.2 °F 5.6 °F 17.6 °F 86% 29.73 in 1.0 mi NW 20.7 mph 29.9 mph 0.30 in Snow Light Snow
9:55 PM 19.4 °F 2.8 °F 17.6 °F 93% 29.74 in 1.8 mi NW 21.9 mph 29.9 mph 0.43 in Snow Light Snow
10:15 PM 19.4 °F 3.2 °F 15.8 °F 86% 29.75 in 2.5 mi WNW 20.7 mph 29.9 mph 0.01 in Snow Light Snow
10:35 PM 19.4 °F 5.0 °F 17.6 °F 93% 29.76 in 3.0 mi WNW 16.1 mph 26.5 mph 0.06 in Snow Light Snow
10:55 PM 19.4 °F 4.5 °F 15.8 °F 86% 29.76 in 5.0 mi WNW 17.3 mph 23.0 mph 0.09 in Snow Light Snow
11:15 PM 19.4 °F 4.1 °F 17.6 °F 93% 29.77 in 2.0 mi WNW 18.4 mph 25.3 mph 0.07 in Snow Light Snow
11:35 PM 19.4 °F 2.5 °F 15.8 °F 86% 29.77 in 3.0 mi WNW 23.0 mph 27.6 mph 0.10 in Snow Light Snow
11:55 PM 19.4 °F 4.1 °F 15.8 °F 86% 29.78 in 2.0 mi WNW 18.4 mph 29.9 mph 0.33 in Snow Light Snow